VOZ095 YMML-WADD
Flight info
| Callsign | VOZ095 |
|---|---|
| Flight time | 6h 0m |
| Altitude | 36000 |
| Route | PEDNI H345 AD T20 RUSAD/N0460F380 T20 BOPLO B349 KALIV |
| Aircraft | B38M/M-SADE3GHIJ4J7M3RWZ/LB1D1 |
Departure
| Time | 2026-05-05 08:20 |
|---|---|
| Airport | Melbourne Airport (YMML) |
Arrival
| Time | 2026-05-05 14:20 |
|---|---|
| Airport | Denpasar I Gusti Ngurah Rai International Airport (WADD) |
| Time | Latitude | Longitude | Altitude | Speed | Heading |
|---|---|---|---|---|---|
| 2026-05-05 06:34 | -37.66951 | 144.84742 | 397 ft | 0 kts | 37° |
| 2026-05-05 08:07 | -37.66967 | 144.84728 | 392 ft | 4 kts | 38° |
| 2026-05-05 08:07 | -37.66987 | 144.84705 | 394 ft | 4 kts | 47° |
| 2026-05-05 08:08 | -37.67001 | 144.84678 | 395 ft | 4 kts | 77° |
| 2026-05-05 08:08 | -37.67004 | 144.84651 | 394 ft | 4 kts | 83° |
| 2026-05-05 08:08 | -37.67007 | 144.84617 | 394 ft | 4 kts | 83° |
| 2026-05-05 08:08 | -37.67010 | 144.84583 | 393 ft | 4 kts | 83° |
| 2026-05-05 08:09 | -37.67014 | 144.84549 | 392 ft | 4 kts | 84° |
| 2026-05-05 08:09 | -37.67016 | 144.84516 | 392 ft | 3 kts | 89° |
| 2026-05-05 08:09 | -37.67019 | 144.84484 | 391 ft | 4 kts | 68° |
| 2026-05-05 08:09 | -37.67034 | 144.84459 | 391 ft | 4 kts | 32° |
| 2026-05-05 08:10 | -37.67058 | 144.84448 | 390 ft | 4 kts | 4° |
| 2026-05-05 08:10 | -37.67085 | 144.84449 | 390 ft | 4 kts | 352° |
| 2026-05-05 08:10 | -37.67103 | 144.84453 | 389 ft | 4 kts | 351° |
| 2026-05-05 08:10 | -37.67108 | 144.84454 | 389 ft | 0 kts | 352° |
| 2026-05-05 08:13 | -37.67104 | 144.84453 | 389 ft | 2 kts | 354° |
| 2026-05-05 08:13 | -37.67076 | 144.84440 | 389 ft | 7 kts | 328° |
| 2026-05-05 08:14 | -37.67053 | 144.84374 | 389 ft | 8 kts | 271° |
| 2026-05-05 08:14 | -37.67058 | 144.84297 | 388 ft | 9 kts | 272° |
| 2026-05-05 08:14 | -37.67017 | 144.84237 | 388 ft | 9 kts | 339° |
| 2026-05-05 08:14 | -37.66954 | 144.84223 | 389 ft | 9 kts | 351° |
| 2026-05-05 08:15 | -37.66896 | 144.84212 | 391 ft | 9 kts | 351° |
| 2026-05-05 08:15 | -37.66829 | 144.84200 | 393 ft | 12 kts | 352° |
| 2026-05-05 08:15 | -37.66731 | 144.84181 | 396 ft | 16 kts | 351° |
| 2026-05-05 08:15 | -37.66606 | 144.84157 | 401 ft | 20 kts | 351° |
| 2026-05-05 08:16 | -37.66459 | 144.84131 | 409 ft | 22 kts | 351° |
| 2026-05-05 08:16 | -37.66332 | 144.84106 | 411 ft | 16 kts | 351° |
| 2026-05-05 08:16 | -37.66224 | 144.84086 | 412 ft | 15 kts | 352° |
| 2026-05-05 08:16 | -37.66120 | 144.84067 | 414 ft | 15 kts | 352° |
| 2026-05-05 08:17 | -37.66011 | 144.84047 | 414 ft | 18 kts | 351° |
| 2026-05-05 08:17 | -37.65865 | 144.84018 | 422 ft | 24 kts | 351° |
| 2026-05-05 08:17 | -37.65685 | 144.83986 | 420 ft | 27 kts | 352° |
| 2026-05-05 08:17 | -37.65502 | 144.83952 | 424 ft | 25 kts | 346° |
| 2026-05-05 08:18 | -37.65351 | 144.83891 | 427 ft | 20 kts | 318° |
| 2026-05-05 08:18 | -37.65299 | 144.83756 | 437 ft | 17 kts | 265° |
| 2026-05-05 08:18 | -37.65317 | 144.83620 | 440 ft | 15 kts | 261° |
| 2026-05-05 08:18 | -37.65346 | 144.83506 | 429 ft | 13 kts | 206° |
| 2026-05-05 08:19 | -37.65443 | 144.83515 | 428 ft | 27 kts | 171° |
| 2026-05-05 08:19 | -37.65890 | 144.83598 | 425 ft | 100 kts | 172° |
| 2026-05-05 08:19 | -37.66796 | 144.83768 | 396 ft | 161 kts | 172° |
| 2026-05-05 08:19 | -37.67998 | 144.83981 | 727 ft | 180 kts | 172° |
| 2026-05-05 08:20 | -37.69261 | 144.84222 | 1458 ft | 184 kts | 173° |
| 2026-05-05 08:20 | -37.70528 | 144.84463 | 2221 ft | 189 kts | 173° |
| 2026-05-05 08:20 | -37.71902 | 144.84721 | 2664 ft | 209 kts | 174° |
| 2026-05-05 08:20 | -37.73431 | 144.84877 | 3012 ft | 236 kts | 188° |
| 2026-05-05 08:21 | -37.74893 | 144.84104 | 3778 ft | 228 kts | 224° |
| 2026-05-05 08:21 | -37.75785 | 144.82468 | 4730 ft | 234 kts | 252° |
| 2026-05-05 08:21 | -37.75882 | 144.80351 | 5216 ft | 254 kts | 283° |
| 2026-05-05 08:21 | -37.75295 | 144.78148 | 5711 ft | 273 kts | 283° |
| 2026-05-05 08:22 | -37.74882 | 144.75717 | 6172 ft | 293 kts | 280° |
| 2026-05-05 08:22 | -37.74440 | 144.73108 | 6623 ft | 313 kts | 281° |
| 2026-05-05 08:22 | -37.73942 | 144.70365 | 7287 ft | 321 kts | 281° |
| 2026-05-05 08:22 | -37.73429 | 144.67620 | 8187 ft | 323 kts | 282° |
| 2026-05-05 08:23 | -37.72898 | 144.64841 | 9007 ft | 327 kts | 282° |
| 2026-05-05 08:23 | -37.72358 | 144.62043 | 9856 ft | 330 kts | 282° |
| 2026-05-05 08:23 | -37.71804 | 144.59215 | 10614 ft | 333 kts | 282° |
| 2026-05-05 08:23 | -37.71247 | 144.56361 | 11337 ft | 336 kts | 282° |
| 2026-05-05 08:24 | -37.70686 | 144.53480 | 12033 ft | 340 kts | 282° |
| 2026-05-05 08:24 | -37.70155 | 144.50555 | 12724 ft | 343 kts | 280° |
| 2026-05-05 08:24 | -37.69669 | 144.47592 | 13404 ft | 347 kts | 279° |
| 2026-05-05 08:24 | -37.69184 | 144.44632 | 14059 ft | 350 kts | 279° |
| 2026-05-05 08:25 | -37.68650 | 144.41617 | 14625 ft | 355 kts | 286° |
| 2026-05-05 08:25 | -37.67545 | 144.38808 | 15226 ft | 360 kts | 298° |
| 2026-05-05 08:25 | -37.66319 | 144.36032 | 15767 ft | 364 kts | 296° |
| 2026-05-05 08:25 | -37.65104 | 144.33206 | 16320 ft | 367 kts | 296° |
| 2026-05-05 08:26 | -37.63890 | 144.30355 | 16857 ft | 371 kts | 296° |
| 2026-05-05 08:26 | -37.62666 | 144.27468 | 17383 ft | 374 kts | 296° |
| 2026-05-05 08:26 | -37.61434 | 144.24554 | 17931 ft | 378 kts | 296° |
| 2026-05-05 08:26 | -37.60192 | 144.21615 | 18453 ft | 381 kts | 296° |
| 2026-05-05 08:27 | -37.58937 | 144.18647 | 18915 ft | 384 kts | 296° |
| 2026-05-05 08:27 | -37.57675 | 144.15667 | 19372 ft | 387 kts | 296° |
| 2026-05-05 08:27 | -37.56403 | 144.12663 | 19813 ft | 390 kts | 296° |
| 2026-05-05 08:27 | -37.55121 | 144.09641 | 20270 ft | 393 kts | 296° |
| 2026-05-05 08:28 | -37.53827 | 144.06592 | 20731 ft | 395 kts | 296° |
| 2026-05-05 08:28 | -37.52523 | 144.03525 | 21163 ft | 398 kts | 296° |
| 2026-05-05 08:28 | -37.51208 | 144.00433 | 21599 ft | 401 kts | 296° |
| 2026-05-05 08:28 | -37.49885 | 143.97326 | 22023 ft | 404 kts | 296° |
| 2026-05-05 08:29 | -37.48552 | 143.94198 | 22452 ft | 407 kts | 296° |
| 2026-05-05 08:29 | -37.47210 | 143.91053 | 22878 ft | 410 kts | 296° |
| 2026-05-05 08:29 | -37.45857 | 143.87885 | 23289 ft | 412 kts | 296° |
| 2026-05-05 08:30 | -37.43119 | 143.81481 | 24040 ft | 418 kts | 296° |
| 2026-05-05 08:30 | -37.41735 | 143.78248 | 24227 ft | 422 kts | 296° |
| 2026-05-05 08:30 | -37.40346 | 143.75007 | 24242 ft | 420 kts | 296° |
| 2026-05-05 08:30 | -37.38958 | 143.71775 | 24476 ft | 420 kts | 296° |
| 2026-05-05 08:31 | -37.37567 | 143.68538 | 24839 ft | 421 kts | 296° |
| 2026-05-05 08:31 | -37.36171 | 143.65291 | 25184 ft | 423 kts | 296° |
| 2026-05-05 08:31 | -37.34771 | 143.62023 | 25479 ft | 426 kts | 297° |
| 2026-05-05 08:31 | -37.33357 | 143.58753 | 25875 ft | 426 kts | 297° |
| 2026-05-05 08:32 | -37.31939 | 143.55472 | 26170 ft | 429 kts | 297° |
| 2026-05-05 08:32 | -37.30515 | 143.52175 | 26505 ft | 430 kts | 297° |
| 2026-05-05 08:32 | -37.29100 | 143.48902 | 26825 ft | 432 kts | 297° |
| 2026-05-05 08:32 | -37.27665 | 143.45585 | 27147 ft | 433 kts | 297° |
| 2026-05-05 08:33 | -37.26225 | 143.42258 | 27459 ft | 435 kts | 297° |
| 2026-05-05 08:33 | -37.24773 | 143.38911 | 27764 ft | 437 kts | 297° |
| 2026-05-05 08:33 | -37.23319 | 143.35561 | 28073 ft | 438 kts | 297° |
| 2026-05-05 08:33 | -37.21854 | 143.32189 | 28373 ft | 440 kts | 297° |
| 2026-05-05 08:34 | -37.20383 | 143.28808 | 28673 ft | 441 kts | 297° |
| 2026-05-05 08:34 | -37.19111 | 143.25311 | 28961 ft | 441 kts | 289° |
| 2026-05-05 08:34 | -37.18014 | 143.21707 | 29228 ft | 443 kts | 290° |
| 2026-05-05 08:34 | -37.16908 | 143.18093 | 29510 ft | 445 kts | 290° |
| 2026-05-05 08:35 | -37.15800 | 143.14466 | 29778 ft | 446 kts | 290° |
| 2026-05-05 08:35 | -37.14688 | 143.10825 | 30051 ft | 448 kts | 290° |
| 2026-05-05 08:35 | -37.13569 | 143.07171 | 30331 ft | 449 kts | 290° |
| 2026-05-05 08:35 | -37.12452 | 143.03520 | 30639 ft | 448 kts | 290° |
| 2026-05-05 08:36 | -37.11336 | 142.99883 | 30977 ft | 447 kts | 290° |
| 2026-05-05 08:36 | -37.10221 | 142.96251 | 31312 ft | 445 kts | 290° |
| 2026-05-05 08:36 | -37.09110 | 142.92640 | 31653 ft | 443 kts | 290° |
| 2026-05-05 08:36 | -37.08005 | 142.89049 | 31987 ft | 442 kts | 290° |
| 2026-05-05 08:37 | -37.06900 | 142.85465 | 32314 ft | 440 kts | 290° |
| 2026-05-05 08:37 | -37.05798 | 142.81894 | 32630 ft | 439 kts | 290° |
| 2026-05-05 08:37 | -37.04701 | 142.78344 | 32934 ft | 437 kts | 290° |
| 2026-05-05 08:37 | -37.03604 | 142.74797 | 33253 ft | 436 kts | 290° |
| 2026-05-05 08:38 | -37.02511 | 142.71268 | 33552 ft | 434 kts | 290° |
| 2026-05-05 08:38 | -37.01420 | 142.67753 | 33853 ft | 433 kts | 290° |
| 2026-05-05 08:38 | -37.00332 | 142.64250 | 34156 ft | 431 kts | 290° |
| 2026-05-05 08:38 | -36.99247 | 142.60760 | 34417 ft | 430 kts | 290° |
| 2026-05-05 08:39 | -36.98164 | 142.57282 | 34646 ft | 428 kts | 290° |
| 2026-05-05 08:39 | -36.97083 | 142.53813 | 34869 ft | 427 kts | 290° |
| 2026-05-05 08:39 | -36.96004 | 142.50355 | 35075 ft | 427 kts | 290° |
| 2026-05-05 08:39 | -36.94926 | 142.46907 | 35285 ft | 425 kts | 290° |
| 2026-05-05 08:40 | -36.93849 | 142.43464 | 35480 ft | 425 kts | 290° |
| 2026-05-05 08:40 | -36.92787 | 142.40074 | 35656 ft | 424 kts | 290° |
| 2026-05-05 08:40 | -36.91713 | 142.36647 | 35859 ft | 423 kts | 290° |
| 2026-05-05 08:40 | -36.90639 | 142.33228 | 36035 ft | 422 kts | 290° |
| 2026-05-05 08:41 | -36.89568 | 142.29821 | 36200 ft | 421 kts | 290° |
| 2026-05-05 08:41 | -36.87424 | 142.23012 | 36251 ft | 420 kts | 290° |
| 2026-05-05 08:42 | -36.85287 | 142.16241 | 36252 ft | 419 kts | 290° |
| 2026-05-05 08:42 | -36.83146 | 142.09476 | 36253 ft | 419 kts | 290° |
| 2026-05-05 08:43 | -36.81003 | 142.02718 | 36254 ft | 419 kts | 290° |
| 2026-05-05 08:43 | -36.78855 | 141.95960 | 36251 ft | 418 kts | 290° |
| 2026-05-05 08:44 | -36.76706 | 141.89215 | 36252 ft | 418 kts | 290° |
| 2026-05-05 08:44 | -36.74568 | 141.82523 | 36247 ft | 418 kts | 290° |
| 2026-05-05 08:45 | -36.72417 | 141.75800 | 36253 ft | 417 kts | 290° |
| 2026-05-05 08:45 | -36.70263 | 141.69086 | 36260 ft | 417 kts | 290° |
| 2026-05-05 08:46 | -36.68103 | 141.62372 | 36256 ft | 417 kts | 290° |
| 2026-05-05 08:46 | -36.65946 | 141.55681 | 36257 ft | 416 kts | 290° |
| 2026-05-05 08:47 | -36.63785 | 141.48991 | 36254 ft | 416 kts | 290° |
| 2026-05-05 08:47 | -36.61623 | 141.42314 | 36257 ft | 416 kts | 290° |
| 2026-05-05 08:48 | -36.59456 | 141.35638 | 36258 ft | 416 kts | 290° |
| 2026-05-05 08:48 | -36.57288 | 141.28973 | 36253 ft | 415 kts | 290° |
| 2026-05-05 08:49 | -36.55119 | 141.22318 | 36254 ft | 415 kts | 290° |
| 2026-05-05 08:49 | -36.52944 | 141.15662 | 36256 ft | 415 kts | 289° |
| 2026-05-05 08:50 | -36.50766 | 141.09013 | 36260 ft | 415 kts | 290° |
| 2026-05-05 08:50 | -36.48599 | 141.02411 | 36258 ft | 415 kts | 290° |
| 2026-05-05 08:51 | -36.46417 | 140.95775 | 36259 ft | 415 kts | 290° |
| 2026-05-05 08:51 | -36.44231 | 140.89140 | 36256 ft | 415 kts | 290° |
| 2026-05-05 08:52 | -36.42042 | 140.82511 | 36259 ft | 415 kts | 290° |
| 2026-05-05 08:52 | -36.39843 | 140.75886 | 36260 ft | 415 kts | 292° |
| 2026-05-05 08:52 | -36.38330 | 140.72839 | 36255 ft | 416 kts | 307° |
| 2026-05-05 08:53 | -36.36548 | 140.70004 | 36250 ft | 418 kts | 304° |
| 2026-05-05 08:53 | -36.33000 | 140.64273 | 36266 ft | 419 kts | 305° |
| 2026-05-05 08:54 | -36.29430 | 140.58616 | 36262 ft | 419 kts | 306° |
| 2026-05-05 08:54 | -36.25823 | 140.52930 | 36260 ft | 419 kts | 306° |
| 2026-05-05 08:55 | -36.22216 | 140.47255 | 36263 ft | 419 kts | 306° |
| 2026-05-05 08:55 | -36.18604 | 140.41583 | 36261 ft | 419 kts | 306° |
| 2026-05-05 08:56 | -36.15577 | 140.36836 | 36261 ft | 419 kts | 306° |
| 2026-05-05 08:56 | -36.11965 | 140.31182 | 36266 ft | 419 kts | 306° |
| 2026-05-05 08:57 | -36.08369 | 140.25559 | 36265 ft | 419 kts | 306° |
| 2026-05-05 08:57 | -36.04746 | 140.19905 | 36259 ft | 420 kts | 306° |
| 2026-05-05 08:58 | -36.01113 | 140.14245 | 36265 ft | 420 kts | 306° |
| 2026-05-05 08:58 | -35.97484 | 140.08601 | 36264 ft | 420 kts | 306° |
| 2026-05-05 08:59 | -35.93850 | 140.02957 | 36266 ft | 420 kts | 306° |
| 2026-05-05 08:59 | -35.90212 | 139.97317 | 36260 ft | 420 kts | 306° |
| 2026-05-05 09:00 | -35.86595 | 139.91719 | 36261 ft | 420 kts | 306° |
| 2026-05-05 09:00 | -35.82949 | 139.86086 | 36265 ft | 420 kts | 306° |
| 2026-05-05 09:01 | -35.79300 | 139.80457 | 36266 ft | 420 kts | 306° |
| 2026-05-05 09:01 | -35.75650 | 139.74834 | 36263 ft | 420 kts | 306° |
| 2026-05-05 09:02 | -35.71999 | 139.69221 | 36265 ft | 420 kts | 306° |
| 2026-05-05 09:02 | -35.68344 | 139.63610 | 36271 ft | 420 kts | 306° |
| 2026-05-05 09:03 | -35.64688 | 139.58007 | 36269 ft | 420 kts | 306° |
| 2026-05-05 09:03 | -35.61055 | 139.52447 | 36263 ft | 420 kts | 306° |
| 2026-05-05 09:04 | -35.57396 | 139.46858 | 36269 ft | 420 kts | 307° |
| 2026-05-05 09:04 | -35.53735 | 139.41273 | 36277 ft | 420 kts | 307° |
| 2026-05-05 09:05 | -35.50069 | 139.35691 | 36273 ft | 420 kts | 307° |
| 2026-05-05 09:05 | -35.46398 | 139.30109 | 36270 ft | 420 kts | 307° |
| 2026-05-05 09:06 | -35.42728 | 139.24535 | 36270 ft | 420 kts | 307° |
| 2026-05-05 09:06 | -35.39052 | 139.18969 | 36270 ft | 420 kts | 307° |
| 2026-05-05 09:07 | -35.35374 | 139.13405 | 36270 ft | 420 kts | 307° |
| 2026-05-05 09:07 | -35.31695 | 139.07848 | 36273 ft | 420 kts | 307° |
| 2026-05-05 09:08 | -35.28014 | 139.02296 | 36277 ft | 420 kts | 307° |
| 2026-05-05 09:08 | -35.24353 | 138.96785 | 36274 ft | 420 kts | 307° |
| 2026-05-05 09:09 | -35.20666 | 138.91243 | 36277 ft | 420 kts | 307° |
| 2026-05-05 09:09 | -35.16978 | 138.85707 | 36273 ft | 420 kts | 307° |
| 2026-05-05 09:10 | -35.13287 | 138.80177 | 36274 ft | 420 kts | 307° |
| 2026-05-05 09:10 | -35.09590 | 138.74645 | 36286 ft | 420 kts | 307° |
| 2026-05-05 09:11 | -35.05889 | 138.69118 | 36288 ft | 420 kts | 307° |
| 2026-05-05 09:11 | -35.02191 | 138.63603 | 36293 ft | 420 kts | 307° |
| 2026-05-05 09:12 | -34.98513 | 138.58125 | 36293 ft | 420 kts | 307° |
| 2026-05-05 09:12 | -34.94790 | 138.52646 | 36286 ft | 421 kts | 312° |
| 2026-05-05 09:13 | -34.90560 | 138.47698 | 36285 ft | 422 kts | 313° |
| 2026-05-05 09:13 | -34.86372 | 138.42688 | 36291 ft | 422 kts | 313° |
| 2026-05-05 09:14 | -34.82196 | 138.37673 | 36284 ft | 422 kts | 313° |
| 2026-05-05 09:14 | -34.78021 | 138.32662 | 36288 ft | 422 kts | 313° |
| 2026-05-05 09:15 | -34.73843 | 138.27654 | 36282 ft | 422 kts | 313° |
| 2026-05-05 09:15 | -34.69661 | 138.22650 | 36272 ft | 422 kts | 313° |
| 2026-05-05 09:16 | -34.65477 | 138.17652 | 36273 ft | 422 kts | 313° |
| 2026-05-05 09:16 | -34.61314 | 138.12685 | 36273 ft | 422 kts | 313° |
| 2026-05-05 09:17 | -34.57119 | 138.07688 | 36279 ft | 422 kts | 313° |
| 2026-05-05 09:17 | -34.52931 | 138.02706 | 36275 ft | 422 kts | 313° |
| 2026-05-05 09:18 | -34.48730 | 137.97716 | 36276 ft | 422 kts | 313° |
| 2026-05-05 09:18 | -34.44527 | 137.92731 | 36276 ft | 422 kts | 313° |
| 2026-05-05 09:19 | -34.40381 | 137.87688 | 36285 ft | 422 kts | 312° |
| 2026-05-05 09:19 | -34.36293 | 137.82575 | 36276 ft | 422 kts | 312° |
| 2026-05-05 09:20 | -34.32225 | 137.77510 | 36274 ft | 422 kts | 312° |
| 2026-05-05 09:20 | -34.28124 | 137.72413 | 36279 ft | 422 kts | 312° |
| 2026-05-05 09:21 | -34.24020 | 137.67319 | 36280 ft | 423 kts | 312° |
| 2026-05-05 09:21 | -34.19917 | 137.62235 | 36278 ft | 423 kts | 312° |
| 2026-05-05 09:22 | -34.15803 | 137.57144 | 36278 ft | 423 kts | 313° |
| 2026-05-05 09:22 | -34.11693 | 137.52065 | 36279 ft | 423 kts | 313° |
| 2026-05-05 09:23 | -34.07574 | 137.46984 | 36278 ft | 423 kts | 313° |
| 2026-05-05 09:23 | -34.03457 | 137.41912 | 36282 ft | 423 kts | 313° |
| 2026-05-05 09:24 | -33.99357 | 137.36868 | 36282 ft | 424 kts | 313° |
| 2026-05-05 09:24 | -33.95230 | 137.31799 | 36278 ft | 424 kts | 313° |
| 2026-05-05 09:25 | -33.91101 | 137.26734 | 36278 ft | 424 kts | 313° |
| 2026-05-05 09:25 | -33.86966 | 137.21670 | 36281 ft | 424 kts | 313° |
| 2026-05-05 09:26 | -33.82826 | 137.16608 | 36280 ft | 424 kts | 313° |
| 2026-05-05 09:26 | -33.78686 | 137.11552 | 36284 ft | 424 kts | 313° |
| 2026-05-05 09:27 | -33.74539 | 137.06496 | 36282 ft | 425 kts | 313° |
| 2026-05-05 09:27 | -33.70386 | 137.01440 | 36278 ft | 425 kts | 313° |
| 2026-05-05 09:28 | -33.66227 | 136.96383 | 36285 ft | 425 kts | 313° |
| 2026-05-05 09:28 | -33.62066 | 136.91332 | 36284 ft | 425 kts | 313° |
| 2026-05-05 09:29 | -33.57903 | 136.86285 | 36280 ft | 426 kts | 313° |
| 2026-05-05 09:29 | -33.53759 | 136.81269 | 36276 ft | 426 kts | 313° |
| 2026-05-05 09:30 | -33.49588 | 136.76228 | 36280 ft | 426 kts | 313° |
| 2026-05-05 09:30 | -33.45410 | 136.71185 | 36276 ft | 426 kts | 313° |
| 2026-05-05 09:31 | -33.41229 | 136.66146 | 36276 ft | 427 kts | 313° |
| 2026-05-05 09:31 | -33.37042 | 136.61107 | 36282 ft | 427 kts | 313° |
| 2026-05-05 09:32 | -33.32853 | 136.56074 | 36287 ft | 427 kts | 313° |
| 2026-05-05 09:32 | -33.28657 | 136.51039 | 36294 ft | 427 kts | 313° |
| 2026-05-05 09:33 | -33.24463 | 136.46013 | 36285 ft | 427 kts | 313° |
| 2026-05-05 09:33 | -33.20261 | 136.40985 | 36295 ft | 427 kts | 313° |
| 2026-05-05 09:34 | -33.16056 | 136.35961 | 36293 ft | 428 kts | 313° |
| 2026-05-05 09:34 | -33.11846 | 136.30937 | 36280 ft | 428 kts | 313° |
| 2026-05-05 09:35 | -33.07656 | 136.25943 | 36292 ft | 428 kts | 313° |
| 2026-05-05 09:35 | -33.01315 | 136.18410 | 36284 ft | 429 kts | 313° |
| 2026-05-05 09:36 | -32.97075 | 136.13386 | 36280 ft | 429 kts | 313° |
| 2026-05-05 09:36 | -32.92840 | 136.08374 | 36289 ft | 430 kts | 313° |
| 2026-05-05 09:37 | -32.88602 | 136.03366 | 36288 ft | 430 kts | 313° |
| 2026-05-05 09:37 | -32.84357 | 135.98356 | 36287 ft | 430 kts | 313° |
| 2026-05-05 09:38 | -32.80134 | 135.93379 | 36284 ft | 430 kts | 313° |
| 2026-05-05 09:38 | -32.75877 | 135.88369 | 36278 ft | 430 kts | 313° |
| 2026-05-05 09:39 | -32.71625 | 135.83373 | 36285 ft | 430 kts | 313° |
| 2026-05-05 09:39 | -32.67364 | 135.78373 | 36287 ft | 431 kts | 313° |
| 2026-05-05 09:40 | -32.63100 | 135.73377 | 36288 ft | 431 kts | 313° |
| 2026-05-05 09:40 | -32.58828 | 135.68378 | 36290 ft | 431 kts | 313° |
| 2026-05-05 09:41 | -32.54555 | 135.63384 | 36288 ft | 431 kts | 313° |
| 2026-05-05 09:41 | -32.50273 | 135.58389 | 36292 ft | 432 kts | 313° |
| 2026-05-05 09:42 | -32.46715 | 135.54242 | 36293 ft | 432 kts | 313° |
| 2026-05-05 09:42 | -32.41710 | 135.48418 | 36291 ft | 432 kts | 313° |
| 2026-05-05 09:43 | -32.38147 | 135.44277 | 36294 ft | 432 kts | 313° |
| 2026-05-05 09:43 | -32.33860 | 135.39303 | 36299 ft | 432 kts | 313° |
| 2026-05-05 09:44 | -32.29567 | 135.34327 | 36292 ft | 432 kts | 313° |
| 2026-05-05 09:44 | -32.25271 | 135.29356 | 36296 ft | 432 kts | 313° |
| 2026-05-05 09:45 | -32.20972 | 135.24387 | 36296 ft | 432 kts | 313° |
| 2026-05-05 09:45 | -32.16701 | 135.19458 | 36292 ft | 432 kts | 313° |
| 2026-05-05 09:46 | -32.12400 | 135.14501 | 36294 ft | 432 kts | 313° |
| 2026-05-05 09:46 | -32.08099 | 135.09552 | 36290 ft | 432 kts | 313° |
| 2026-05-05 09:47 | -32.03795 | 135.04605 | 36290 ft | 432 kts | 313° |
| 2026-05-05 09:47 | -31.99487 | 134.99662 | 36303 ft | 432 kts | 313° |
| 2026-05-05 09:48 | -31.95176 | 134.94721 | 36299 ft | 432 kts | 313° |
| 2026-05-05 09:48 | -31.90864 | 134.89786 | 36295 ft | 432 kts | 313° |
| 2026-05-05 09:49 | -31.86549 | 134.84855 | 36300 ft | 432 kts | 313° |
| 2026-05-05 09:49 | -31.82235 | 134.79931 | 36293 ft | 432 kts | 313° |
| 2026-05-05 09:50 | -31.77917 | 134.75009 | 36299 ft | 432 kts | 313° |
| 2026-05-05 09:50 | -31.73595 | 134.70090 | 36302 ft | 432 kts | 313° |
| 2026-05-05 09:51 | -31.69279 | 134.65184 | 36302 ft | 432 kts | 313° |
| 2026-05-05 09:51 | -31.64953 | 134.60274 | 36293 ft | 432 kts | 313° |
| 2026-05-05 09:52 | -31.60632 | 134.55375 | 36300 ft | 432 kts | 313° |
| 2026-05-05 09:52 | -31.56307 | 134.50480 | 36297 ft | 432 kts | 313° |
| 2026-05-05 09:53 | -31.52013 | 134.45625 | 36303 ft | 432 kts | 313° |
| 2026-05-05 09:53 | -31.47688 | 134.40742 | 36305 ft | 432 kts | 313° |
| 2026-05-05 09:54 | -31.43362 | 134.35866 | 36299 ft | 431 kts | 313° |
| 2026-05-05 09:54 | -31.39032 | 134.30991 | 36307 ft | 431 kts | 313° |
| 2026-05-05 09:55 | -31.34708 | 134.26129 | 36301 ft | 431 kts | 313° |
| 2026-05-05 09:55 | -31.30385 | 134.21274 | 36305 ft | 431 kts | 313° |
| 2026-05-05 09:56 | -31.26062 | 134.16427 | 36302 ft | 430 kts | 313° |
| 2026-05-05 09:56 | -31.21739 | 134.11585 | 36296 ft | 430 kts | 313° |
| 2026-05-05 09:57 | -31.17422 | 134.06757 | 36308 ft | 430 kts | 314° |
| 2026-05-05 09:57 | -31.13104 | 134.01942 | 36302 ft | 429 kts | 314° |
| 2026-05-05 09:58 | -31.08787 | 133.97131 | 36300 ft | 429 kts | 314° |
| 2026-05-05 09:58 | -31.04469 | 133.92328 | 36301 ft | 428 kts | 314° |
| 2026-05-05 09:59 | -31.00162 | 133.87534 | 36320 ft | 428 kts | 313° |
| 2026-05-05 09:59 | -30.95888 | 133.82766 | 36300 ft | 427 kts | 313° |
| 2026-05-05 10:00 | -30.91588 | 133.77992 | 36304 ft | 427 kts | 313° |
| 2026-05-05 10:00 | -30.87288 | 133.73225 | 36301 ft | 427 kts | 313° |
| 2026-05-05 10:01 | -30.82992 | 133.68468 | 36301 ft | 426 kts | 313° |
| 2026-05-05 10:01 | -30.78693 | 133.63726 | 36304 ft | 426 kts | 312° |
| 2026-05-05 10:02 | -30.74398 | 133.58987 | 36299 ft | 425 kts | 312° |
| 2026-05-05 10:02 | -30.70104 | 133.54254 | 36307 ft | 425 kts | 312° |
| 2026-05-05 10:03 | -30.65810 | 133.49528 | 36304 ft | 425 kts | 312° |
| 2026-05-05 10:03 | -30.61525 | 133.44817 | 36304 ft | 424 kts | 312° |
| 2026-05-05 10:04 | -30.57268 | 133.40144 | 36297 ft | 424 kts | 312° |
| 2026-05-05 10:04 | -30.52978 | 133.35441 | 36309 ft | 424 kts | 312° |
| 2026-05-05 10:05 | -30.48694 | 133.30748 | 36304 ft | 424 kts | 312° |
| 2026-05-05 10:05 | -30.44410 | 133.26063 | 36305 ft | 423 kts | 312° |
| 2026-05-05 10:06 | -30.40123 | 133.21380 | 36304 ft | 423 kts | 312° |
| 2026-05-05 10:06 | -30.35872 | 133.16742 | 36304 ft | 423 kts | 312° |
| 2026-05-05 10:07 | -30.31585 | 133.12072 | 36304 ft | 422 kts | 312° |
| 2026-05-05 10:07 | -30.27306 | 133.07415 | 36304 ft | 422 kts | 312° |
| 2026-05-05 10:08 | -30.23027 | 133.02765 | 36305 ft | 422 kts | 312° |
| 2026-05-05 10:08 | -30.18752 | 132.98124 | 36305 ft | 421 kts | 312° |
| 2026-05-05 10:09 | -30.14476 | 132.93489 | 36310 ft | 421 kts | 312° |
| 2026-05-05 10:09 | -30.10232 | 132.88893 | 36307 ft | 421 kts | 313° |
| 2026-05-05 10:10 | -30.05960 | 132.84274 | 36310 ft | 420 kts | 312° |
| 2026-05-05 10:10 | -30.01696 | 132.79668 | 36305 ft | 420 kts | 312° |
| 2026-05-05 10:11 | -29.97432 | 132.75068 | 36306 ft | 419 kts | 312° |
| 2026-05-05 10:11 | -29.93172 | 132.70478 | 36310 ft | 419 kts | 312° |
| 2026-05-05 10:12 | -29.88909 | 132.65890 | 36311 ft | 419 kts | 312° |
| 2026-05-05 10:12 | -29.84646 | 132.61309 | 36311 ft | 419 kts | 313° |
| 2026-05-05 10:13 | -29.80381 | 132.56731 | 36307 ft | 418 kts | 313° |
| 2026-05-05 10:13 | -29.76119 | 132.52161 | 36308 ft | 418 kts | 313° |
| 2026-05-05 10:14 | -29.71859 | 132.47600 | 36308 ft | 418 kts | 313° |
| 2026-05-05 10:14 | -29.67598 | 132.43042 | 36309 ft | 418 kts | 313° |
| 2026-05-05 10:15 | -29.63364 | 132.38519 | 36310 ft | 418 kts | 313° |
| 2026-05-05 10:15 | -29.59102 | 132.33972 | 36315 ft | 418 kts | 313° |
| 2026-05-05 10:16 | -29.54845 | 132.29435 | 36306 ft | 417 kts | 313° |
| 2026-05-05 10:16 | -29.50580 | 132.24895 | 36307 ft | 417 kts | 313° |
| 2026-05-05 10:17 | -29.46321 | 132.20367 | 36306 ft | 417 kts | 313° |
| 2026-05-05 10:17 | -29.42057 | 132.15839 | 36308 ft | 417 kts | 313° |
| 2026-05-05 10:18 | -29.37794 | 132.11319 | 36306 ft | 417 kts | 313° |
| 2026-05-05 10:18 | -29.33527 | 132.06799 | 36303 ft | 417 kts | 313° |
| 2026-05-05 10:19 | -29.29256 | 132.02280 | 36310 ft | 417 kts | 313° |
| 2026-05-05 10:19 | -29.24991 | 131.97772 | 36308 ft | 417 kts | 313° |
| 2026-05-05 10:20 | -29.20721 | 131.93266 | 36306 ft | 418 kts | 313° |
| 2026-05-05 10:20 | -29.16478 | 131.88791 | 36303 ft | 417 kts | 313° |
| 2026-05-05 10:21 | -29.12204 | 131.84291 | 36304 ft | 417 kts | 313° |
| 2026-05-05 10:21 | -29.07934 | 131.79800 | 36309 ft | 417 kts | 313° |
| 2026-05-05 10:22 | -29.03656 | 131.75305 | 36315 ft | 418 kts | 313° |
| 2026-05-05 10:22 | -28.99377 | 131.70815 | 36301 ft | 417 kts | 313° |
| 2026-05-05 10:23 | -28.95098 | 131.66330 | 36311 ft | 417 kts | 313° |
| 2026-05-05 10:23 | -28.90822 | 131.61854 | 36315 ft | 417 kts | 313° |
| 2026-05-05 10:24 | -28.86546 | 131.57383 | 36319 ft | 417 kts | 313° |
| 2026-05-05 10:24 | -28.82296 | 131.52944 | 36311 ft | 417 kts | 313° |
| 2026-05-05 10:25 | -28.78015 | 131.48479 | 36319 ft | 417 kts | 313° |
| 2026-05-05 10:25 | -28.73735 | 131.44018 | 36306 ft | 417 kts | 313° |
| 2026-05-05 10:26 | -28.69447 | 131.39555 | 36307 ft | 417 kts | 313° |
| 2026-05-05 10:26 | -28.65161 | 131.35098 | 36309 ft | 417 kts | 313° |
| 2026-05-05 10:27 | -28.60875 | 131.30646 | 36310 ft | 417 kts | 313° |
| 2026-05-05 10:27 | -28.56587 | 131.26197 | 36303 ft | 417 kts | 313° |
| 2026-05-05 10:28 | -28.52292 | 131.21746 | 36303 ft | 417 kts | 313° |
| 2026-05-05 10:28 | -28.47993 | 131.17304 | 36305 ft | 417 kts | 313° |
| 2026-05-05 10:29 | -28.44419 | 131.13612 | 36305 ft | 417 kts | 313° |
| 2026-05-05 10:29 | -28.40121 | 131.09175 | 36303 ft | 417 kts | 313° |
| 2026-05-05 10:30 | -28.35822 | 131.04741 | 36303 ft | 418 kts | 313° |
| 2026-05-05 10:30 | -28.31521 | 131.00311 | 36305 ft | 418 kts | 313° |
| 2026-05-05 10:31 | -28.27218 | 130.95884 | 36306 ft | 418 kts | 313° |
| 2026-05-05 10:31 | -28.22911 | 130.91458 | 36304 ft | 417 kts | 313° |
| 2026-05-05 10:32 | -28.18604 | 130.87038 | 36305 ft | 417 kts | 313° |
| 2026-05-05 10:32 | -28.14326 | 130.82651 | 36302 ft | 418 kts | 313° |
| 2026-05-05 10:33 | -28.10015 | 130.78235 | 36302 ft | 418 kts | 313° |
| 2026-05-05 10:33 | -28.05703 | 130.73824 | 36305 ft | 417 kts | 314° |
| 2026-05-05 10:34 | -28.01387 | 130.69414 | 36301 ft | 418 kts | 314° |
| 2026-05-05 10:34 | -27.97072 | 130.65008 | 36300 ft | 418 kts | 314° |
| 2026-05-05 10:35 | -27.92761 | 130.60613 | 36300 ft | 417 kts | 314° |
| 2026-05-05 10:35 | -27.88441 | 130.56215 | 36299 ft | 417 kts | 314° |
| 2026-05-05 10:36 | -27.84122 | 130.51820 | 36300 ft | 418 kts | 314° |
| 2026-05-05 10:36 | -27.79802 | 130.47430 | 36301 ft | 418 kts | 314° |
| 2026-05-05 10:37 | -27.75482 | 130.43044 | 36303 ft | 417 kts | 314° |
| 2026-05-05 10:37 | -27.71161 | 130.38663 | 36296 ft | 417 kts | 314° |
| 2026-05-05 10:38 | -27.66836 | 130.34284 | 36296 ft | 417 kts | 314° |
| 2026-05-05 10:38 | -27.62508 | 130.29905 | 36299 ft | 418 kts | 314° |
| 2026-05-05 10:39 | -27.58207 | 130.25559 | 36298 ft | 418 kts | 314° |
| 2026-05-05 10:39 | -27.53880 | 130.21191 | 36293 ft | 418 kts | 314° |
| 2026-05-05 10:40 | -27.49553 | 130.16827 | 36299 ft | 417 kts | 314° |
| 2026-05-05 10:40 | -27.45223 | 130.12466 | 36299 ft | 417 kts | 314° |
| 2026-05-05 10:41 | -27.40884 | 130.08101 | 36290 ft | 418 kts | 314° |
| 2026-05-05 10:41 | -27.36553 | 130.03748 | 36296 ft | 418 kts | 314° |
| 2026-05-05 10:42 | -27.30044 | 129.97217 | 36293 ft | 418 kts | 314° |
| 2026-05-05 10:43 | -27.25707 | 129.92869 | 36295 ft | 418 kts | 314° |
| 2026-05-05 10:43 | -27.21368 | 129.88525 | 36286 ft | 418 kts | 314° |
| 2026-05-05 10:44 | -27.17049 | 129.84205 | 36286 ft | 418 kts | 314° |
| 2026-05-05 10:44 | -27.12703 | 129.79864 | 36286 ft | 418 kts | 314° |
| 2026-05-05 10:45 | -27.08356 | 129.75526 | 36287 ft | 418 kts | 314° |
| 2026-05-05 10:45 | -27.04008 | 129.71192 | 36284 ft | 418 kts | 314° |
| 2026-05-05 10:46 | -26.99655 | 129.66858 | 36286 ft | 418 kts | 314° |
| 2026-05-05 10:46 | -26.95305 | 129.62530 | 36284 ft | 418 kts | 314° |
| 2026-05-05 10:47 | -26.90952 | 129.58205 | 36284 ft | 418 kts | 314° |
| 2026-05-05 10:47 | -26.86598 | 129.53884 | 36280 ft | 418 kts | 314° |
| 2026-05-05 10:48 | -26.82273 | 129.49596 | 36277 ft | 418 kts | 314° |
| 2026-05-05 10:48 | -26.77916 | 129.45281 | 36275 ft | 418 kts | 314° |
| 2026-05-05 10:49 | -26.73561 | 129.40971 | 36273 ft | 418 kts | 314° |
| 2026-05-05 10:49 | -26.69204 | 129.36666 | 36275 ft | 418 kts | 314° |
| 2026-05-05 10:50 | -26.64838 | 129.32355 | 36272 ft | 418 kts | 314° |
| 2026-05-05 10:50 | -26.60479 | 129.28056 | 36268 ft | 418 kts | 314° |
| 2026-05-05 10:51 | -26.56142 | 129.23784 | 36266 ft | 418 kts | 314° |
| 2026-05-05 10:51 | -26.51780 | 129.19491 | 36266 ft | 418 kts | 314° |
| 2026-05-05 10:52 | -26.47423 | 129.15207 | 36266 ft | 417 kts | 314° |
| 2026-05-05 10:52 | -26.43066 | 129.10927 | 36261 ft | 418 kts | 314° |
| 2026-05-05 10:53 | -26.38700 | 129.06643 | 36260 ft | 418 kts | 314° |
| 2026-05-05 10:53 | -26.34338 | 129.02367 | 36260 ft | 417 kts | 314° |
| 2026-05-05 10:54 | -26.29980 | 128.98099 | 36256 ft | 417 kts | 314° |
| 2026-05-05 10:54 | -26.25544 | 128.93915 | 36259 ft | 419 kts | 318° |
| 2026-05-05 10:55 | -26.20939 | 128.89932 | 36251 ft | 419 kts | 317° |
| 2026-05-05 10:55 | -26.16355 | 128.85932 | 36249 ft | 419 kts | 317° |
| 2026-05-05 10:56 | -26.11773 | 128.81932 | 36248 ft | 418 kts | 317° |
| 2026-05-05 10:56 | -26.07193 | 128.77937 | 36246 ft | 418 kts | 317° |
| 2026-05-05 10:57 | -26.02639 | 128.73970 | 36252 ft | 418 kts | 317° |
| 2026-05-05 10:57 | -25.98059 | 128.69983 | 36241 ft | 418 kts | 317° |
| 2026-05-05 10:58 | -25.93478 | 128.66001 | 36239 ft | 418 kts | 317° |
| 2026-05-05 10:58 | -25.88901 | 128.62025 | 36238 ft | 417 kts | 317° |
| 2026-05-05 10:59 | -25.84322 | 128.58052 | 36239 ft | 417 kts | 317° |
| 2026-05-05 10:59 | -25.79746 | 128.54085 | 36238 ft | 417 kts | 317° |
| 2026-05-05 11:00 | -25.75169 | 128.50122 | 36232 ft | 417 kts | 317° |
| 2026-05-05 11:00 | -25.70598 | 128.46167 | 36232 ft | 417 kts | 317° |
| 2026-05-05 11:01 | -25.66035 | 128.42224 | 36231 ft | 416 kts | 317° |
| 2026-05-05 11:01 | -25.61470 | 128.38283 | 36226 ft | 415 kts | 317° |
| 2026-05-05 11:02 | -25.56916 | 128.34354 | 36224 ft | 415 kts | 317° |
| 2026-05-05 11:02 | -25.52363 | 128.30432 | 36224 ft | 414 kts | 316° |
| 2026-05-05 11:03 | -25.47849 | 128.26545 | 36219 ft | 413 kts | 316° |
| 2026-05-05 11:03 | -25.43311 | 128.22642 | 36215 ft | 413 kts | 316° |
| 2026-05-05 11:04 | -25.38783 | 128.18753 | 36215 ft | 412 kts | 316° |
| 2026-05-05 11:04 | -25.34261 | 128.14872 | 36213 ft | 411 kts | 316° |
| 2026-05-05 11:05 | -25.29738 | 128.10993 | 36208 ft | 411 kts | 316° |
| 2026-05-05 11:05 | -25.25224 | 128.07127 | 36211 ft | 411 kts | 316° |
| 2026-05-05 11:06 | -25.20708 | 128.03262 | 36204 ft | 411 kts | 316° |
| 2026-05-05 11:06 | -25.16190 | 127.99400 | 36203 ft | 410 kts | 316° |
| 2026-05-05 11:07 | -25.11671 | 127.95539 | 36200 ft | 410 kts | 316° |
| 2026-05-05 11:07 | -25.07158 | 127.91689 | 36193 ft | 410 kts | 316° |
| 2026-05-05 11:08 | -25.02644 | 127.87840 | 36195 ft | 410 kts | 316° |
| 2026-05-05 11:08 | -24.98126 | 127.83992 | 36195 ft | 410 kts | 316° |
| 2026-05-05 11:09 | -24.93603 | 127.80144 | 36187 ft | 411 kts | 316° |
| 2026-05-05 11:09 | -24.89105 | 127.76320 | 36190 ft | 411 kts | 316° |
| 2026-05-05 11:10 | -24.84570 | 127.72468 | 36186 ft | 411 kts | 316° |
| 2026-05-05 11:10 | -24.80038 | 127.68622 | 36187 ft | 411 kts | 316° |
| 2026-05-05 11:11 | -24.75503 | 127.64779 | 36183 ft | 411 kts | 316° |
| 2026-05-05 11:11 | -24.70980 | 127.60949 | 36179 ft | 410 kts | 316° |
| 2026-05-05 11:12 | -24.66461 | 127.57125 | 36179 ft | 409 kts | 316° |
| 2026-05-05 11:12 | -24.61945 | 127.53308 | 36179 ft | 409 kts | 316° |
| 2026-05-05 11:13 | -24.57441 | 127.49504 | 36179 ft | 408 kts | 315° |
| 2026-05-05 11:13 | -24.52962 | 127.45725 | 36177 ft | 407 kts | 315° |
| 2026-05-05 11:14 | -24.48469 | 127.41937 | 36173 ft | 406 kts | 315° |
| 2026-05-05 11:14 | -24.43990 | 127.38163 | 36174 ft | 405 kts | 315° |
| 2026-05-05 11:15 | -24.40270 | 127.35034 | 36171 ft | 405 kts | 315° |
| 2026-05-05 11:15 | -24.35802 | 127.31282 | 36171 ft | 404 kts | 315° |
| 2026-05-05 11:16 | -24.31339 | 127.27536 | 36174 ft | 404 kts | 315° |
| 2026-05-05 11:16 | -24.26878 | 127.23795 | 36165 ft | 403 kts | 315° |
| 2026-05-05 11:17 | -24.22417 | 127.20058 | 36164 ft | 403 kts | 315° |
| 2026-05-05 11:17 | -24.17993 | 127.16355 | 36168 ft | 402 kts | 315° |
| 2026-05-05 11:18 | -24.13548 | 127.12638 | 36160 ft | 401 kts | 315° |
| 2026-05-05 11:18 | -24.09108 | 127.08929 | 36162 ft | 401 kts | 315° |
| 2026-05-05 11:19 | -24.04670 | 127.05224 | 36164 ft | 401 kts | 314° |
| 2026-05-05 11:19 | -24.00237 | 127.01527 | 36158 ft | 400 kts | 314° |
| 2026-05-05 11:20 | -23.95806 | 126.97835 | 36157 ft | 400 kts | 314° |
| 2026-05-05 11:20 | -23.91380 | 126.94151 | 36159 ft | 399 kts | 314° |
| 2026-05-05 11:21 | -23.86961 | 126.90475 | 36154 ft | 399 kts | 314° |
| 2026-05-05 11:21 | -23.82565 | 126.86822 | 36152 ft | 399 kts | 314° |
| 2026-05-05 11:22 | -23.78147 | 126.83153 | 36153 ft | 399 kts | 314° |
| 2026-05-05 11:22 | -23.73733 | 126.79491 | 36147 ft | 398 kts | 314° |
| 2026-05-05 11:23 | -23.69324 | 126.75837 | 36144 ft | 398 kts | 314° |
| 2026-05-05 11:23 | -23.64919 | 126.72189 | 36138 ft | 398 kts | 314° |
| 2026-05-05 11:24 | -23.60511 | 126.68542 | 36140 ft | 398 kts | 314° |
| 2026-05-05 11:24 | -23.56102 | 126.64897 | 36139 ft | 397 kts | 314° |
| 2026-05-05 11:25 | -23.51699 | 126.61259 | 36142 ft | 397 kts | 314° |
| 2026-05-05 11:25 | -23.47297 | 126.57627 | 36144 ft | 397 kts | 314° |
| 2026-05-05 11:26 | -23.42899 | 126.54000 | 36136 ft | 397 kts | 314° |
| 2026-05-05 11:26 | -23.38495 | 126.50370 | 36134 ft | 396 kts | 314° |
| 2026-05-05 11:27 | -23.34097 | 126.46751 | 36130 ft | 396 kts | 314° |
| 2026-05-05 11:27 | -23.29723 | 126.43155 | 36134 ft | 396 kts | 314° |
| 2026-05-05 11:28 | -23.25325 | 126.39540 | 36130 ft | 396 kts | 314° |
| 2026-05-05 11:28 | -23.20928 | 126.35930 | 36130 ft | 396 kts | 314° |
| 2026-05-05 11:29 | -23.16537 | 126.32328 | 36129 ft | 396 kts | 314° |
| 2026-05-05 11:29 | -23.12142 | 126.28726 | 36130 ft | 395 kts | 314° |
| 2026-05-05 11:30 | -23.07746 | 126.25126 | 36125 ft | 395 kts | 314° |
| 2026-05-05 11:30 | -23.03355 | 126.21532 | 36122 ft | 395 kts | 314° |
| 2026-05-05 11:31 | -22.98963 | 126.17941 | 36121 ft | 395 kts | 314° |
| 2026-05-05 11:31 | -22.94573 | 126.14356 | 36121 ft | 395 kts | 314° |
| 2026-05-05 11:32 | -22.90186 | 126.10775 | 36119 ft | 395 kts | 314° |
| 2026-05-05 11:32 | -22.85820 | 126.07214 | 36113 ft | 395 kts | 314° |
| 2026-05-05 11:33 | -22.81431 | 126.03637 | 36115 ft | 395 kts | 314° |
| 2026-05-05 11:33 | -22.77039 | 126.00062 | 36109 ft | 394 kts | 314° |
| 2026-05-05 11:34 | -22.72651 | 125.96492 | 36109 ft | 394 kts | 314° |
| 2026-05-05 11:34 | -22.68257 | 125.92920 | 36105 ft | 394 kts | 314° |
| 2026-05-05 11:35 | -22.63866 | 125.89354 | 36104 ft | 394 kts | 314° |
| 2026-05-05 11:35 | -22.59476 | 125.85791 | 36100 ft | 394 kts | 314° |
| 2026-05-05 11:36 | -22.55085 | 125.82231 | 36102 ft | 394 kts | 314° |
| 2026-05-05 11:36 | -22.50722 | 125.78695 | 36102 ft | 394 kts | 314° |
| 2026-05-05 11:37 | -22.46330 | 125.75140 | 36097 ft | 394 kts | 314° |
| 2026-05-05 11:37 | -22.41935 | 125.71585 | 36094 ft | 395 kts | 314° |
| 2026-05-05 11:38 | -22.37538 | 125.68031 | 36100 ft | 395 kts | 314° |
| 2026-05-05 11:38 | -22.33138 | 125.64477 | 36091 ft | 395 kts | 314° |
| 2026-05-05 11:39 | -22.28736 | 125.60925 | 36086 ft | 395 kts | 314° |
| 2026-05-05 11:39 | -22.24330 | 125.57373 | 36089 ft | 395 kts | 314° |
| 2026-05-05 11:40 | -22.19924 | 125.53824 | 36087 ft | 395 kts | 314° |
| 2026-05-05 11:40 | -22.15512 | 125.50272 | 36087 ft | 395 kts | 314° |
| 2026-05-05 11:41 | -22.11101 | 125.46724 | 36082 ft | 396 kts | 314° |
| 2026-05-05 11:41 | -22.06683 | 125.43173 | 36078 ft | 396 kts | 314° |
| 2026-05-05 11:42 | -22.02295 | 125.39650 | 36078 ft | 396 kts | 314° |
| 2026-05-05 11:42 | -21.97875 | 125.36103 | 36075 ft | 396 kts | 314° |
| 2026-05-05 11:43 | -21.93450 | 125.32554 | 36072 ft | 397 kts | 314° |
| 2026-05-05 11:43 | -21.89021 | 125.29007 | 36069 ft | 397 kts | 314° |
| 2026-05-05 11:44 | -21.84585 | 125.25455 | 36065 ft | 397 kts | 314° |
| 2026-05-05 11:44 | -21.80149 | 125.21906 | 36069 ft | 398 kts | 313° |
| 2026-05-05 11:45 | -21.75708 | 125.18356 | 36061 ft | 397 kts | 313° |
| 2026-05-05 11:45 | -21.71265 | 125.14806 | 36065 ft | 398 kts | 313° |
| 2026-05-05 11:46 | -21.66813 | 125.11259 | 36062 ft | 398 kts | 313° |
| 2026-05-05 11:46 | -21.62384 | 125.07730 | 36051 ft | 399 kts | 313° |
| 2026-05-05 11:47 | -21.57921 | 125.04176 | 36056 ft | 399 kts | 313° |
| 2026-05-05 11:47 | -21.53450 | 125.00621 | 36050 ft | 400 kts | 313° |
| 2026-05-05 11:48 | -21.46737 | 124.95285 | 36050 ft | 400 kts | 313° |
| 2026-05-05 11:48 | -21.42263 | 124.91734 | 36057 ft | 400 kts | 313° |
| 2026-05-05 11:49 | -21.37788 | 124.88183 | 36053 ft | 400 kts | 313° |
| 2026-05-05 11:49 | -21.33330 | 124.84650 | 36052 ft | 401 kts | 313° |
| 2026-05-05 11:50 | -21.28846 | 124.81098 | 36054 ft | 401 kts | 313° |
| 2026-05-05 11:50 | -21.24360 | 124.77548 | 36052 ft | 401 kts | 314° |
| 2026-05-05 11:51 | -21.19869 | 124.73995 | 36050 ft | 401 kts | 314° |
| 2026-05-05 11:51 | -21.15369 | 124.70439 | 36046 ft | 402 kts | 314° |
| 2026-05-05 11:52 | -21.10863 | 124.66881 | 36046 ft | 402 kts | 314° |
| 2026-05-05 11:52 | -21.06356 | 124.63326 | 36048 ft | 403 kts | 313° |
| 2026-05-05 11:53 | -21.01840 | 124.59765 | 36047 ft | 403 kts | 314° |
| 2026-05-05 11:53 | -20.97321 | 124.56205 | 36045 ft | 403 kts | 314° |
| 2026-05-05 11:54 | -20.92796 | 124.52643 | 36042 ft | 404 kts | 314° |
| 2026-05-05 11:54 | -20.88264 | 124.49078 | 36047 ft | 404 kts | 314° |
| 2026-05-05 11:55 | -20.83728 | 124.45513 | 36047 ft | 405 kts | 314° |
| 2026-05-05 11:55 | -20.79189 | 124.41947 | 36040 ft | 405 kts | 314° |
| 2026-05-05 11:56 | -20.74677 | 124.38406 | 36043 ft | 406 kts | 314° |
| 2026-05-05 11:56 | -20.70119 | 124.34832 | 36039 ft | 406 kts | 314° |
| 2026-05-05 11:57 | -20.65559 | 124.31258 | 36043 ft | 406 kts | 314° |
| 2026-05-05 11:57 | -20.60998 | 124.27687 | 36042 ft | 407 kts | 314° |
| 2026-05-05 11:58 | -20.56430 | 124.24113 | 36043 ft | 407 kts | 314° |
| 2026-05-05 11:58 | -20.51857 | 124.20538 | 36035 ft | 408 kts | 314° |
| 2026-05-05 11:59 | -20.47306 | 124.16983 | 36036 ft | 408 kts | 314° |
| 2026-05-05 11:59 | -20.42725 | 124.13407 | 36035 ft | 408 kts | 314° |
| 2026-05-05 12:00 | -20.38139 | 124.09830 | 36037 ft | 408 kts | 314° |
| 2026-05-05 12:00 | -20.33549 | 124.06252 | 36033 ft | 409 kts | 314° |
| 2026-05-05 12:01 | -20.28959 | 124.02676 | 36035 ft | 409 kts | 314° |
| 2026-05-05 12:01 | -20.25138 | 123.99702 | 36029 ft | 409 kts | 314° |
| 2026-05-05 12:02 | -20.20542 | 123.96127 | 36034 ft | 409 kts | 314° |
| 2026-05-05 12:02 | -20.15942 | 123.92552 | 36033 ft | 410 kts | 314° |
| 2026-05-05 12:03 | -20.11332 | 123.88972 | 36028 ft | 410 kts | 314° |
| 2026-05-05 12:03 | -20.06716 | 123.85390 | 36028 ft | 410 kts | 314° |
| 2026-05-05 12:04 | -20.02098 | 123.81809 | 36027 ft | 411 kts | 314° |
| 2026-05-05 12:04 | -19.97475 | 123.78226 | 36023 ft | 411 kts | 314° |
| 2026-05-05 12:05 | -19.92846 | 123.74642 | 36025 ft | 412 kts | 314° |
| 2026-05-05 12:05 | -19.88219 | 123.71061 | 36020 ft | 412 kts | 314° |
| 2026-05-05 12:06 | -19.83615 | 123.67502 | 36022 ft | 412 kts | 314° |
| 2026-05-05 12:06 | -19.78977 | 123.63919 | 36021 ft | 412 kts | 314° |
| 2026-05-05 12:07 | -19.74333 | 123.60333 | 36019 ft | 412 kts | 314° |
| 2026-05-05 12:07 | -19.69693 | 123.56753 | 36015 ft | 413 kts | 314° |
| 2026-05-05 12:08 | -19.65046 | 123.53171 | 36013 ft | 413 kts | 314° |
| 2026-05-05 12:08 | -19.60391 | 123.49585 | 36017 ft | 413 kts | 314° |
| 2026-05-05 12:09 | -19.55737 | 123.46002 | 36015 ft | 413 kts | 314° |
| 2026-05-05 12:09 | -19.51081 | 123.42420 | 36015 ft | 414 kts | 314° |
| 2026-05-05 12:10 | -19.46421 | 123.38839 | 36014 ft | 414 kts | 314° |
| 2026-05-05 12:10 | -19.41755 | 123.35254 | 36016 ft | 414 kts | 314° |
| 2026-05-05 12:11 | -19.37089 | 123.31673 | 36014 ft | 414 kts | 315° |
| 2026-05-05 12:11 | -19.32416 | 123.28089 | 36015 ft | 415 kts | 315° |
| 2026-05-05 12:12 | -19.27772 | 123.24529 | 36016 ft | 415 kts | 315° |
| 2026-05-05 12:12 | -19.23088 | 123.20942 | 36016 ft | 415 kts | 315° |
| 2026-05-05 12:13 | -19.18408 | 123.17360 | 36013 ft | 416 kts | 315° |
| 2026-05-05 12:13 | -19.13716 | 123.13772 | 36011 ft | 416 kts | 315° |
| 2026-05-05 12:14 | -19.09027 | 123.10188 | 36015 ft | 416 kts | 315° |
| 2026-05-05 12:14 | -19.04333 | 123.06604 | 36015 ft | 416 kts | 315° |
| 2026-05-05 12:15 | -18.99635 | 123.03018 | 36017 ft | 416 kts | 315° |
| 2026-05-05 12:15 | -18.94935 | 122.99433 | 36013 ft | 416 kts | 315° |
| 2026-05-05 12:16 | -18.90267 | 122.95876 | 36011 ft | 417 kts | 315° |
| 2026-05-05 12:16 | -18.85560 | 122.92292 | 36006 ft | 417 kts | 315° |
| 2026-05-05 12:17 | -18.80851 | 122.88708 | 36009 ft | 417 kts | 315° |
| 2026-05-05 12:17 | -18.76131 | 122.85118 | 36007 ft | 418 kts | 315° |
| 2026-05-05 12:18 | -18.71417 | 122.81536 | 36006 ft | 418 kts | 315° |
| 2026-05-05 12:18 | -18.66691 | 122.77947 | 36007 ft | 418 kts | 315° |
| 2026-05-05 12:19 | -18.61967 | 122.74362 | 36004 ft | 418 kts | 315° |
| 2026-05-05 12:19 | -18.57242 | 122.70779 | 36008 ft | 419 kts | 315° |
| 2026-05-05 12:20 | -18.52541 | 122.67216 | 36000 ft | 419 kts | 315° |
| 2026-05-05 12:20 | -18.47806 | 122.63630 | 36000 ft | 419 kts | 315° |
| 2026-05-05 12:21 | -18.43066 | 122.60044 | 36001 ft | 420 kts | 315° |
| 2026-05-05 12:21 | -18.38325 | 122.56458 | 35999 ft | 420 kts | 315° |
| 2026-05-05 12:22 | -18.33572 | 122.52865 | 35996 ft | 420 kts | 315° |
| 2026-05-05 12:22 | -18.28815 | 122.49273 | 35993 ft | 421 kts | 315° |
| 2026-05-05 12:23 | -18.24058 | 122.45683 | 35990 ft | 421 kts | 315° |
| 2026-05-05 12:23 | -18.19293 | 122.42089 | 35991 ft | 421 kts | 315° |
| 2026-05-05 12:24 | -18.14527 | 122.38497 | 35992 ft | 422 kts | 315° |
| 2026-05-05 12:24 | -18.09756 | 122.34903 | 35989 ft | 422 kts | 315° |
| 2026-05-05 12:25 | -18.04980 | 122.31308 | 35991 ft | 422 kts | 316° |
| 2026-05-05 12:25 | -18.00229 | 122.27733 | 35989 ft | 423 kts | 316° |
| 2026-05-05 12:26 | -17.95445 | 122.24134 | 35992 ft | 422 kts | 315° |
| 2026-05-05 12:26 | -17.91125 | 122.20086 | 35989 ft | 417 kts | 310° |
| 2026-05-05 12:27 | -17.86793 | 122.16022 | 35991 ft | 418 kts | 310° |
| 2026-05-05 12:27 | -17.82448 | 122.11979 | 35989 ft | 418 kts | 310° |
| 2026-05-05 12:28 | -17.78085 | 122.07926 | 35989 ft | 418 kts | 310° |
| 2026-05-05 12:28 | -17.73719 | 122.03874 | 35991 ft | 419 kts | 310° |
| 2026-05-05 12:29 | -17.69355 | 121.99826 | 35993 ft | 419 kts | 310° |
| 2026-05-05 12:29 | -17.64989 | 121.95779 | 35992 ft | 419 kts | 310° |
| 2026-05-05 12:30 | -17.60614 | 121.91726 | 35989 ft | 420 kts | 310° |
| 2026-05-05 12:30 | -17.56261 | 121.87697 | 35989 ft | 420 kts | 310° |
| 2026-05-05 12:31 | -17.51878 | 121.83642 | 35986 ft | 421 kts | 310° |
| 2026-05-05 12:31 | -17.47491 | 121.79585 | 35988 ft | 421 kts | 310° |
| 2026-05-05 12:32 | -17.43093 | 121.75523 | 35989 ft | 422 kts | 311° |
| 2026-05-05 12:32 | -17.38693 | 121.71461 | 35989 ft | 422 kts | 311° |
| 2026-05-05 12:33 | -17.34283 | 121.67392 | 35989 ft | 422 kts | 311° |
| 2026-05-05 12:33 | -17.29872 | 121.63324 | 35992 ft | 423 kts | 311° |
| 2026-05-05 12:34 | -17.25455 | 121.59254 | 35990 ft | 423 kts | 311° |
| 2026-05-05 12:34 | -17.21034 | 121.55184 | 35991 ft | 424 kts | 311° |
| 2026-05-05 12:35 | -17.16606 | 121.51109 | 35990 ft | 424 kts | 311° |
| 2026-05-05 12:35 | -17.12173 | 121.47034 | 35989 ft | 424 kts | 311° |
| 2026-05-05 12:36 | -17.07737 | 121.42957 | 35991 ft | 425 kts | 311° |
| 2026-05-05 12:36 | -17.03291 | 121.38874 | 35987 ft | 425 kts | 311° |
| 2026-05-05 12:37 | -16.98872 | 121.34818 | 35988 ft | 426 kts | 311° |
| 2026-05-05 12:37 | -16.94420 | 121.30736 | 36000 ft | 426 kts | 311° |
| 2026-05-05 12:38 | -16.89964 | 121.26651 | 36000 ft | 426 kts | 311° |
| 2026-05-05 12:38 | -16.85501 | 121.22563 | 36004 ft | 426 kts | 311° |
| 2026-05-05 12:39 | -16.81063 | 121.18501 | 35993 ft | 417 kts | 311° |
| 2026-05-05 12:39 | -16.76740 | 121.14545 | 36006 ft | 416 kts | 311° |
| 2026-05-05 12:40 | -16.72348 | 121.10531 | 35990 ft | 423 kts | 311° |
| 2026-05-05 12:40 | -16.67888 | 121.06456 | 35990 ft | 428 kts | 311° |
| 2026-05-05 12:41 | -16.63404 | 121.02363 | 35999 ft | 428 kts | 311° |
| 2026-05-05 12:41 | -16.58955 | 120.98303 | 35994 ft | 428 kts | 311° |
| 2026-05-05 12:42 | -16.54469 | 120.94213 | 35992 ft | 428 kts | 311° |
| 2026-05-05 12:42 | -16.49979 | 120.90122 | 35996 ft | 429 kts | 311° |
| 2026-05-05 12:43 | -16.45486 | 120.86030 | 35993 ft | 429 kts | 312° |
| 2026-05-05 12:43 | -16.40999 | 120.81945 | 35997 ft | 429 kts | 312° |
| 2026-05-05 12:44 | -16.36502 | 120.77856 | 35993 ft | 429 kts | 312° |
| 2026-05-05 12:44 | -16.32005 | 120.73768 | 35993 ft | 429 kts | 312° |
| 2026-05-05 12:45 | -16.27507 | 120.69682 | 35994 ft | 429 kts | 312° |
| 2026-05-05 12:45 | -16.23031 | 120.65620 | 35996 ft | 429 kts | 312° |
| 2026-05-05 12:46 | -16.18527 | 120.61534 | 35996 ft | 430 kts | 312° |
| 2026-05-05 12:46 | -16.14018 | 120.57446 | 35994 ft | 430 kts | 312° |
| 2026-05-05 12:47 | -16.09512 | 120.53363 | 35993 ft | 430 kts | 312° |
| 2026-05-05 12:47 | -16.04997 | 120.49274 | 35993 ft | 430 kts | 312° |
| 2026-05-05 12:48 | -16.00479 | 120.45186 | 35993 ft | 430 kts | 312° |
| 2026-05-05 12:48 | -15.96721 | 120.41787 | 35992 ft | 430 kts | 312° |
| 2026-05-05 12:49 | -15.92202 | 120.37703 | 35993 ft | 431 kts | 312° |
| 2026-05-05 12:49 | -15.87684 | 120.33621 | 35991 ft | 430 kts | 312° |
| 2026-05-05 12:50 | -15.83162 | 120.29539 | 35991 ft | 430 kts | 312° |
| 2026-05-05 12:50 | -15.78641 | 120.25460 | 35989 ft | 430 kts | 312° |
| 2026-05-05 12:51 | -15.74121 | 120.21384 | 35989 ft | 430 kts | 312° |
| 2026-05-05 12:51 | -15.69624 | 120.17332 | 35989 ft | 431 kts | 312° |
| 2026-05-05 12:52 | -15.65097 | 120.13255 | 35988 ft | 431 kts | 312° |
| 2026-05-05 12:52 | -15.60568 | 120.09179 | 35985 ft | 431 kts | 312° |
| 2026-05-05 12:53 | -15.56037 | 120.05103 | 35991 ft | 431 kts | 312° |
| 2026-05-05 12:53 | -15.51502 | 120.01027 | 35986 ft | 431 kts | 312° |
| 2026-05-05 12:54 | -15.44700 | 119.94916 | 35992 ft | 431 kts | 312° |
| 2026-05-05 12:55 | -15.40160 | 119.90842 | 35990 ft | 431 kts | 312° |
| 2026-05-05 12:55 | -15.35619 | 119.86768 | 35993 ft | 432 kts | 312° |
| 2026-05-05 12:56 | -15.31076 | 119.82696 | 35994 ft | 432 kts | 312° |
| 2026-05-05 12:56 | -15.26529 | 119.78621 | 35994 ft | 432 kts | 312° |
| 2026-05-05 12:57 | -15.22012 | 119.74575 | 35995 ft | 432 kts | 312° |
| 2026-05-05 12:57 | -15.17458 | 119.70500 | 35993 ft | 432 kts | 312° |
| 2026-05-05 12:58 | -15.12901 | 119.66425 | 35987 ft | 433 kts | 312° |
| 2026-05-05 12:58 | -15.08347 | 119.62354 | 35988 ft | 433 kts | 312° |
| 2026-05-05 12:59 | -15.03786 | 119.58277 | 35989 ft | 433 kts | 312° |
| 2026-05-05 12:59 | -14.99222 | 119.54203 | 35992 ft | 433 kts | 312° |
| 2026-05-05 13:00 | -14.92405 | 119.48122 | 35990 ft | 434 kts | 313° |
| 2026-05-05 13:01 | -14.83263 | 119.39971 | 35979 ft | 434 kts | 311° |
| 2026-05-05 13:01 | -14.78690 | 119.35900 | 36004 ft | 435 kts | 313° |
| 2026-05-05 13:02 | -14.74112 | 119.31828 | 35989 ft | 434 kts | 313° |
| 2026-05-05 13:02 | -14.69523 | 119.27747 | 35992 ft | 435 kts | 313° |
| 2026-05-05 13:03 | -14.64940 | 119.23672 | 35990 ft | 435 kts | 313° |
| 2026-05-05 13:03 | -14.60350 | 119.19594 | 35989 ft | 435 kts | 313° |
| 2026-05-05 13:04 | -14.55759 | 119.15519 | 35990 ft | 436 kts | 313° |
| 2026-05-05 13:04 | -14.51160 | 119.11439 | 35987 ft | 436 kts | 313° |
| 2026-05-05 13:05 | -14.46558 | 119.07357 | 35989 ft | 436 kts | 313° |
| 2026-05-05 13:05 | -14.41979 | 119.03299 | 35986 ft | 436 kts | 313° |
| 2026-05-05 13:06 | -14.37370 | 118.99214 | 35988 ft | 437 kts | 313° |
| 2026-05-05 13:06 | -14.32759 | 118.95133 | 35987 ft | 437 kts | 313° |
| 2026-05-05 13:07 | -14.28143 | 118.91048 | 35986 ft | 437 kts | 313° |
| 2026-05-05 13:07 | -14.23527 | 118.86965 | 35987 ft | 437 kts | 313° |
| 2026-05-05 13:08 | -14.18905 | 118.82880 | 35986 ft | 438 kts | 313° |
| 2026-05-05 13:08 | -14.14276 | 118.78791 | 35987 ft | 438 kts | 313° |
| 2026-05-05 13:09 | -14.09678 | 118.74731 | 35988 ft | 438 kts | 313° |
| 2026-05-05 13:09 | -14.05051 | 118.70649 | 35984 ft | 438 kts | 314° |
| 2026-05-05 13:10 | -14.00416 | 118.66561 | 35983 ft | 439 kts | 314° |
| 2026-05-05 13:10 | -13.95780 | 118.62474 | 35984 ft | 439 kts | 314° |
| 2026-05-05 13:11 | -13.91136 | 118.58383 | 35984 ft | 439 kts | 314° |
| 2026-05-05 13:11 | -13.86491 | 118.54293 | 35984 ft | 440 kts | 314° |
| 2026-05-05 13:12 | -13.81832 | 118.50193 | 35983 ft | 440 kts | 314° |
| 2026-05-05 13:12 | -13.77186 | 118.46105 | 35985 ft | 440 kts | 314° |
| 2026-05-05 13:13 | -13.72527 | 118.42012 | 35982 ft | 440 kts | 314° |
| 2026-05-05 13:13 | -13.67870 | 118.37920 | 35978 ft | 440 kts | 314° |
| 2026-05-05 13:14 | -13.63237 | 118.33851 | 35976 ft | 441 kts | 313° |
| 2026-05-05 13:14 | -13.58577 | 118.29756 | 35978 ft | 441 kts | 313° |
| 2026-05-05 13:15 | -13.53908 | 118.25661 | 35978 ft | 441 kts | 313° |
| 2026-05-05 13:15 | -13.49243 | 118.21569 | 35978 ft | 441 kts | 313° |
| 2026-05-05 13:16 | -13.44570 | 118.17475 | 35978 ft | 442 kts | 313° |
| 2026-05-05 13:16 | -13.39894 | 118.13380 | 35979 ft | 441 kts | 314° |
| 2026-05-05 13:17 | -13.35217 | 118.09288 | 35978 ft | 441 kts | 314° |
| 2026-05-05 13:17 | -13.30533 | 118.05192 | 35978 ft | 442 kts | 314° |
| 2026-05-05 13:18 | -13.25856 | 118.01103 | 35980 ft | 442 kts | 314° |
| 2026-05-05 13:18 | -13.21206 | 117.97039 | 35978 ft | 442 kts | 314° |
| 2026-05-05 13:19 | -13.16520 | 117.92946 | 35978 ft | 442 kts | 314° |
| 2026-05-05 13:19 | -13.11833 | 117.88855 | 35978 ft | 442 kts | 314° |
| 2026-05-05 13:20 | -13.07144 | 117.84764 | 35979 ft | 442 kts | 314° |
| 2026-05-05 13:20 | -13.02448 | 117.80670 | 35978 ft | 443 kts | 314° |
| 2026-05-05 13:21 | -12.97761 | 117.76584 | 35977 ft | 443 kts | 314° |
| 2026-05-05 13:21 | -12.93061 | 117.72490 | 35976 ft | 443 kts | 314° |
| 2026-05-05 13:22 | -12.88363 | 117.68399 | 35976 ft | 443 kts | 314° |
| 2026-05-05 13:22 | -12.83683 | 117.64326 | 35977 ft | 443 kts | 315° |
| 2026-05-05 13:23 | -12.78981 | 117.60235 | 35975 ft | 443 kts | 315° |
| 2026-05-05 13:23 | -12.74275 | 117.56144 | 35972 ft | 444 kts | 315° |
| 2026-05-05 13:24 | -12.69568 | 117.52054 | 35976 ft | 444 kts | 315° |
| 2026-05-05 13:24 | -12.64860 | 117.47965 | 35972 ft | 444 kts | 315° |
| 2026-05-05 13:25 | -12.60145 | 117.43871 | 35971 ft | 444 kts | 315° |
| 2026-05-05 13:25 | -12.55435 | 117.39784 | 35970 ft | 444 kts | 315° |
| 2026-05-05 13:26 | -12.50722 | 117.35696 | 35973 ft | 444 kts | 315° |
| 2026-05-05 13:26 | -12.46004 | 117.31606 | 35973 ft | 444 kts | 315° |
| 2026-05-05 13:27 | -12.41321 | 117.27548 | 35974 ft | 444 kts | 315° |
| 2026-05-05 13:27 | -12.36603 | 117.23462 | 35967 ft | 444 kts | 315° |
| 2026-05-05 13:28 | -12.31884 | 117.19377 | 35969 ft | 444 kts | 315° |
| 2026-05-05 13:28 | -12.27167 | 117.15296 | 35972 ft | 444 kts | 316° |
| 2026-05-05 13:29 | -12.22452 | 117.11217 | 35968 ft | 444 kts | 315° |
| 2026-05-05 13:29 | -12.17732 | 117.07137 | 35972 ft | 444 kts | 315° |
| 2026-05-05 13:30 | -12.13010 | 117.03057 | 35968 ft | 444 kts | 315° |
| 2026-05-05 13:30 | -12.08291 | 116.98982 | 35967 ft | 444 kts | 315° |
| 2026-05-05 13:31 | -12.03603 | 116.94936 | 35963 ft | 444 kts | 316° |
| 2026-05-05 13:31 | -11.98676 | 116.91112 | 35961 ft | 450 kts | 328° |
| 2026-05-05 13:32 | -11.93172 | 116.88061 | 35962 ft | 451 kts | 327° |
| 2026-05-05 13:32 | -11.87660 | 116.84995 | 35968 ft | 451 kts | 327° |
| 2026-05-05 13:33 | -11.82143 | 116.81939 | 35969 ft | 451 kts | 327° |
| 2026-05-05 13:33 | -11.76620 | 116.78882 | 35965 ft | 451 kts | 327° |
| 2026-05-05 13:34 | -11.71103 | 116.75829 | 35967 ft | 451 kts | 327° |
| 2026-05-05 13:34 | -11.65581 | 116.72775 | 35963 ft | 451 kts | 327° |
| 2026-05-05 13:35 | -11.60059 | 116.69722 | 35966 ft | 452 kts | 327° |
| 2026-05-05 13:35 | -11.54532 | 116.66668 | 35968 ft | 452 kts | 327° |
| 2026-05-05 13:36 | -11.49044 | 116.63638 | 35965 ft | 451 kts | 327° |
| 2026-05-05 13:36 | -11.43523 | 116.60590 | 35962 ft | 451 kts | 327° |
| 2026-05-05 13:37 | -11.37994 | 116.57539 | 35963 ft | 451 kts | 328° |
| 2026-05-05 13:37 | -11.32467 | 116.54490 | 35963 ft | 451 kts | 328° |
| 2026-05-05 13:38 | -11.27840 | 116.51939 | 35966 ft | 451 kts | 328° |
| 2026-05-05 13:38 | -11.21417 | 116.48399 | 35962 ft | 451 kts | 328° |
| 2026-05-05 13:39 | -11.16848 | 116.45883 | 35848 ft | 442 kts | 328° |
| 2026-05-05 13:39 | -11.14159 | 116.44402 | 35456 ft | 437 kts | 328° |
| 2026-05-05 13:39 | -11.11491 | 116.42933 | 34928 ft | 435 kts | 328° |
| 2026-05-05 13:40 | -11.08824 | 116.41465 | 34392 ft | 434 kts | 328° |
| 2026-05-05 13:40 | -11.06174 | 116.40007 | 33861 ft | 433 kts | 328° |
| 2026-05-05 13:40 | -11.03528 | 116.38550 | 33286 ft | 431 kts | 328° |
| 2026-05-05 13:40 | -11.00898 | 116.37103 | 32772 ft | 429 kts | 328° |
| 2026-05-05 13:41 | -10.98284 | 116.35666 | 32279 ft | 426 kts | 328° |
| 2026-05-05 13:41 | -10.95670 | 116.34256 | 31724 ft | 425 kts | 329° |
| 2026-05-05 13:41 | -10.93056 | 116.32855 | 31207 ft | 424 kts | 329° |
| 2026-05-05 13:41 | -10.90453 | 116.31458 | 30738 ft | 421 kts | 329° |
| 2026-05-05 13:42 | -10.87863 | 116.30068 | 30266 ft | 419 kts | 329° |
| 2026-05-05 13:42 | -10.85288 | 116.28685 | 29750 ft | 418 kts | 329° |
| 2026-05-05 13:42 | -10.82718 | 116.27306 | 29199 ft | 416 kts | 329° |
| 2026-05-05 13:42 | -10.80166 | 116.25937 | 28726 ft | 413 kts | 329° |
| 2026-05-05 13:43 | -10.77634 | 116.24578 | 28274 ft | 410 kts | 329° |
| 2026-05-05 13:43 | -10.75123 | 116.23231 | 27826 ft | 407 kts | 329° |
| 2026-05-05 13:43 | -10.72626 | 116.21891 | 27382 ft | 404 kts | 330° |
| 2026-05-05 13:43 | -10.70147 | 116.20562 | 26942 ft | 401 kts | 330° |
| 2026-05-05 13:44 | -10.67719 | 116.19260 | 26509 ft | 399 kts | 330° |
| 2026-05-05 13:44 | -10.65273 | 116.17949 | 26087 ft | 397 kts | 330° |
| 2026-05-05 13:44 | -10.62837 | 116.16643 | 25666 ft | 394 kts | 330° |
| 2026-05-05 13:44 | -10.60415 | 116.15345 | 25250 ft | 392 kts | 330° |
| 2026-05-05 13:45 | -10.58001 | 116.14051 | 24839 ft | 390 kts | 331° |
| 2026-05-05 13:45 | -10.55604 | 116.12767 | 24437 ft | 389 kts | 331° |
| 2026-05-05 13:45 | -10.53218 | 116.11490 | 24029 ft | 387 kts | 331° |
| 2026-05-05 13:45 | -10.50842 | 116.10217 | 23631 ft | 385 kts | 332° |
| 2026-05-05 13:46 | -10.48469 | 116.08947 | 23175 ft | 384 kts | 332° |
| 2026-05-05 13:46 | -10.46250 | 116.07537 | 22809 ft | 378 kts | 318° |
| 2026-05-05 13:46 | -10.44587 | 116.05489 | 22612 ft | 368 kts | 298° |
| 2026-05-05 13:46 | -10.43503 | 116.03205 | 22475 ft | 359 kts | 295° |
| 2026-05-05 13:47 | -10.42438 | 116.00902 | 22288 ft | 360 kts | 295° |
| 2026-05-05 13:47 | -10.41389 | 115.98593 | 22103 ft | 359 kts | 295° |
| 2026-05-05 13:47 | -10.40352 | 115.96287 | 21905 ft | 358 kts | 294° |
| 2026-05-05 13:47 | -10.39325 | 115.93989 | 21734 ft | 357 kts | 294° |
| 2026-05-05 13:48 | -10.38302 | 115.91694 | 21544 ft | 356 kts | 294° |
| 2026-05-05 13:48 | -10.37285 | 115.89409 | 21370 ft | 355 kts | 294° |
| 2026-05-05 13:48 | -10.36271 | 115.87132 | 21183 ft | 353 kts | 294° |
| 2026-05-05 13:48 | -10.35261 | 115.84864 | 20999 ft | 352 kts | 294° |
| 2026-05-05 13:49 | -10.34251 | 115.82595 | 20820 ft | 351 kts | 294° |
| 2026-05-05 13:49 | -10.33245 | 115.80338 | 20638 ft | 350 kts | 294° |
| 2026-05-05 13:49 | -10.32242 | 115.78087 | 20456 ft | 349 kts | 294° |
| 2026-05-05 13:49 | -10.31244 | 115.75847 | 20276 ft | 348 kts | 294° |
| 2026-05-05 13:50 | -10.30247 | 115.73610 | 20103 ft | 347 kts | 294° |
| 2026-05-05 13:50 | -10.29254 | 115.71385 | 19919 ft | 345 kts | 294° |
| 2026-05-05 13:50 | -10.28265 | 115.69167 | 19745 ft | 344 kts | 294° |
| 2026-05-05 13:50 | -10.27280 | 115.66958 | 19562 ft | 343 kts | 294° |
| 2026-05-05 13:51 | -10.26297 | 115.64755 | 19394 ft | 342 kts | 294° |
| 2026-05-05 13:51 | -10.25317 | 115.62558 | 19218 ft | 341 kts | 294° |
| 2026-05-05 13:51 | -10.24340 | 115.60370 | 19037 ft | 340 kts | 293° |
| 2026-05-05 13:51 | -10.23377 | 115.58214 | 18861 ft | 339 kts | 294° |
| 2026-05-05 13:52 | -10.22395 | 115.56014 | 18691 ft | 337 kts | 293° |
| 2026-05-05 13:52 | -10.21428 | 115.53849 | 18517 ft | 336 kts | 293° |
| 2026-05-05 13:52 | -10.20476 | 115.51717 | 18336 ft | 336 kts | 293° |
| 2026-05-05 13:52 | -10.19513 | 115.49562 | 18157 ft | 335 kts | 293° |
| 2026-05-05 13:53 | -10.18553 | 115.47415 | 17966 ft | 334 kts | 293° |
| 2026-05-05 13:53 | -10.17594 | 115.45270 | 17785 ft | 333 kts | 293° |
| 2026-05-05 13:53 | -10.16637 | 115.43129 | 17610 ft | 333 kts | 293° |
| 2026-05-05 13:53 | -10.15681 | 115.40990 | 17440 ft | 333 kts | 293° |
| 2026-05-05 13:54 | -10.14725 | 115.38853 | 17267 ft | 332 kts | 293° |
| 2026-05-05 13:54 | -10.13770 | 115.36719 | 17096 ft | 332 kts | 293° |
| 2026-05-05 13:54 | -10.12816 | 115.34588 | 16918 ft | 332 kts | 293° |
| 2026-05-05 13:54 | -10.11863 | 115.32459 | 16755 ft | 331 kts | 293° |
| 2026-05-05 13:55 | -10.10911 | 115.30331 | 16581 ft | 331 kts | 293° |
| 2026-05-05 13:55 | -10.09959 | 115.28203 | 16411 ft | 331 kts | 293° |
| 2026-05-05 13:55 | -10.09006 | 115.26076 | 16240 ft | 331 kts | 293° |
| 2026-05-05 13:55 | -10.08054 | 115.23952 | 16071 ft | 330 kts | 293° |
| 2026-05-05 13:56 | -10.07105 | 115.21831 | 15899 ft | 330 kts | 292° |
| 2026-05-05 13:56 | -10.06155 | 115.19712 | 15728 ft | 330 kts | 293° |
| 2026-05-05 13:56 | -10.05207 | 115.17597 | 15556 ft | 329 kts | 292° |
| 2026-05-05 13:56 | -10.04261 | 115.15485 | 15386 ft | 329 kts | 292° |
| 2026-05-05 13:57 | -10.03313 | 115.13372 | 15216 ft | 329 kts | 292° |
| 2026-05-05 13:57 | -10.02366 | 115.11258 | 15049 ft | 329 kts | 292° |
| 2026-05-05 13:57 | -10.01419 | 115.09148 | 14874 ft | 328 kts | 292° |
| 2026-05-05 13:57 | -10.00429 | 115.07057 | 14679 ft | 330 kts | 300° |
| 2026-05-05 13:58 | -9.98912 | 115.05328 | 14498 ft | 331 kts | 322° |
| 2026-05-05 13:58 | -9.96864 | 115.04254 | 14342 ft | 334 kts | 343° |
| 2026-05-05 13:58 | -9.94582 | 115.03788 | 14190 ft | 335 kts | 349° |
| 2026-05-05 13:58 | -9.92283 | 115.03379 | 14012 ft | 336 kts | 350° |
| 2026-05-05 13:59 | -9.87682 | 115.02599 | 13648 ft | 334 kts | 351° |
| 2026-05-05 13:59 | -9.85390 | 115.02221 | 13461 ft | 333 kts | 351° |
| 2026-05-05 14:00 | -9.80853 | 115.01477 | 13111 ft | 332 kts | 351° |
| 2026-05-05 14:00 | -9.79314 | 115.01225 | 12991 ft | 331 kts | 351° |
| 2026-05-05 14:00 | -9.76307 | 115.00733 | 12762 ft | 330 kts | 351° |
| 2026-05-05 14:00 | -9.74045 | 115.00363 | 12591 ft | 329 kts | 351° |
| 2026-05-05 14:01 | -9.71782 | 114.99993 | 12422 ft | 328 kts | 351° |
| 2026-05-05 14:01 | -9.69529 | 114.99625 | 12250 ft | 327 kts | 351° |
| 2026-05-05 14:01 | -9.67289 | 114.99258 | 12087 ft | 326 kts | 352° |
| 2026-05-05 14:01 | -9.65048 | 114.98892 | 11917 ft | 325 kts | 352° |
| 2026-05-05 14:02 | -9.62817 | 114.98527 | 11748 ft | 324 kts | 352° |
| 2026-05-05 14:02 | -9.60590 | 114.98164 | 11581 ft | 324 kts | 352° |
| 2026-05-05 14:02 | -9.58377 | 114.97802 | 11417 ft | 322 kts | 352° |
| 2026-05-05 14:02 | -9.56164 | 114.97440 | 11247 ft | 321 kts | 352° |
| 2026-05-05 14:03 | -9.53959 | 114.97080 | 11080 ft | 320 kts | 352° |
| 2026-05-05 14:03 | -9.51762 | 114.96722 | 10915 ft | 319 kts | 352° |
| 2026-05-05 14:03 | -9.49569 | 114.96364 | 10747 ft | 319 kts | 353° |
| 2026-05-05 14:03 | -9.47382 | 114.96007 | 10578 ft | 318 kts | 352° |
| 2026-05-05 14:04 | -9.45200 | 114.95650 | 10422 ft | 317 kts | 352° |
| 2026-05-05 14:04 | -9.43072 | 114.95303 | 10262 ft | 311 kts | 353° |
| 2026-05-05 14:04 | -9.40933 | 114.94953 | 10105 ft | 303 kts | 353° |
| 2026-05-05 14:04 | -9.38875 | 114.94639 | 9991 ft | 297 kts | 357° |
| 2026-05-05 14:05 | -9.36829 | 114.94543 | 9617 ft | 299 kts | 0° |
| 2026-05-05 14:05 | -9.34740 | 114.94458 | 9217 ft | 300 kts | 360° |
| 2026-05-05 14:05 | -9.32651 | 114.94362 | 8855 ft | 300 kts | 360° |
| 2026-05-05 14:05 | -9.30564 | 114.94259 | 8480 ft | 301 kts | 359° |
| 2026-05-05 14:06 | -9.28475 | 114.94150 | 8127 ft | 301 kts | 359° |
| 2026-05-05 14:06 | -9.26383 | 114.94038 | 7764 ft | 301 kts | 359° |
| 2026-05-05 14:06 | -9.24292 | 114.93925 | 7398 ft | 301 kts | 359° |
| 2026-05-05 14:06 | -9.22199 | 114.93813 | 7039 ft | 301 kts | 359° |
| 2026-05-05 14:07 | -9.20105 | 114.93701 | 6681 ft | 301 kts | 359° |
| 2026-05-05 14:07 | -9.18013 | 114.93589 | 6310 ft | 302 kts | 358° |
| 2026-05-05 14:07 | -9.15904 | 114.93475 | 5912 ft | 303 kts | 359° |
| 2026-05-05 14:07 | -9.13800 | 114.93362 | 5534 ft | 303 kts | 359° |
| 2026-05-05 14:08 | -9.11690 | 114.93249 | 5164 ft | 303 kts | 359° |
| 2026-05-05 14:08 | -9.09585 | 114.93135 | 4802 ft | 302 kts | 359° |
| 2026-05-05 14:08 | -9.07488 | 114.93023 | 4433 ft | 302 kts | 359° |
| 2026-05-05 14:08 | -9.05417 | 114.92911 | 4068 ft | 302 kts | 359° |
| 2026-05-05 14:09 | -9.03353 | 114.92785 | 3922 ft | 288 kts | 359° |
| 2026-05-05 14:09 | -9.01426 | 114.92665 | 3862 ft | 268 kts | 360° |
| 2026-05-05 14:09 | -8.99588 | 114.92554 | 3819 ft | 264 kts | 359° |
| 2026-05-05 14:09 | -8.97755 | 114.92443 | 3752 ft | 263 kts | 359° |
| 2026-05-05 14:10 | -8.95960 | 114.92333 | 3682 ft | 251 kts | 360° |
| 2026-05-05 14:10 | -8.94280 | 114.92229 | 3619 ft | 232 kts | 360° |
| 2026-05-05 14:10 | -8.92705 | 114.92134 | 3611 ft | 220 kts | 360° |
| 2026-05-05 14:10 | -8.91223 | 114.92043 | 3545 ft | 208 kts | 0° |
| 2026-05-05 14:11 | -8.89814 | 114.91957 | 3455 ft | 200 kts | 0° |
| 2026-05-05 14:11 | -8.88444 | 114.91876 | 3406 ft | 200 kts | 0° |
| 2026-05-05 14:11 | -8.87057 | 114.91792 | 3368 ft | 199 kts | 360° |
| 2026-05-05 14:11 | -8.85698 | 114.91709 | 3345 ft | 192 kts | 0° |
| 2026-05-05 14:12 | -8.84382 | 114.91630 | 3271 ft | 188 kts | 0° |
| 2026-05-05 14:12 | -8.83083 | 114.91551 | 3224 ft | 187 kts | 0° |
| 2026-05-05 14:12 | -8.81780 | 114.91472 | 3192 ft | 185 kts | 0° |
| 2026-05-05 14:12 | -8.80490 | 114.91393 | 3105 ft | 186 kts | 0° |
| 2026-05-05 14:13 | -8.79189 | 114.91314 | 3023 ft | 188 kts | 0° |
| 2026-05-05 14:13 | -8.77886 | 114.91237 | 3000 ft | 187 kts | 2° |
| 2026-05-05 14:13 | -8.76674 | 114.91543 | 2941 ft | 177 kts | 38° |
| 2026-05-05 14:13 | -8.75904 | 114.92463 | 2991 ft | 171 kts | 70° |
| 2026-05-05 14:14 | -8.75675 | 114.93626 | 3017 ft | 169 kts | 88° |
| 2026-05-05 14:14 | -8.75622 | 114.94810 | 3019 ft | 169 kts | 89° |
| 2026-05-05 14:14 | -8.75587 | 114.95997 | 3007 ft | 169 kts | 90° |
| 2026-05-05 14:14 | -8.75566 | 114.97183 | 2983 ft | 165 kts | 89° |
| 2026-05-05 14:15 | -8.75539 | 114.98281 | 2794 ft | 149 kts | 88° |
| 2026-05-05 14:15 | -8.75510 | 114.99311 | 2601 ft | 146 kts | 89° |
| 2026-05-05 14:15 | -8.75466 | 115.00335 | 2421 ft | 145 kts | 89° |
| 2026-05-05 14:15 | -8.75429 | 115.01352 | 2239 ft | 144 kts | 89° |
| 2026-05-05 14:16 | -8.75391 | 115.02362 | 2065 ft | 144 kts | 90° |
| 2026-05-05 14:16 | -8.75355 | 115.03359 | 1897 ft | 144 kts | 89° |
| 2026-05-05 14:16 | -8.75318 | 115.04368 | 1725 ft | 143 kts | 89° |
| 2026-05-05 14:16 | -8.75281 | 115.05373 | 1656 ft | 143 kts | 89° |
| 2026-05-05 14:17 | -8.75244 | 115.06383 | 1619 ft | 144 kts | 90° |
| 2026-05-05 14:17 | -8.75204 | 115.07395 | 1464 ft | 144 kts | 89° |
| 2026-05-05 14:17 | -8.75166 | 115.08399 | 1306 ft | 143 kts | 89° |
| 2026-05-05 14:17 | -8.75128 | 115.09405 | 1160 ft | 143 kts | 90° |
| 2026-05-05 14:18 | -8.75088 | 115.10410 | 997 ft | 143 kts | 90° |
| 2026-05-05 14:18 | -8.75051 | 115.11410 | 850 ft | 142 kts | 89° |
| 2026-05-05 14:18 | -8.75010 | 115.12412 | 667 ft | 142 kts | 90° |
| 2026-05-05 14:18 | -8.74973 | 115.13418 | 507 ft | 144 kts | 91° |
| 2026-05-05 14:19 | -8.74929 | 115.14442 | 237 ft | 140 kts | 91° |
| 2026-05-05 14:19 | -8.74896 | 115.15418 | 71 ft | 139 kts | 88° |
| 2026-05-05 14:19 | -8.74859 | 115.16322 | 31 ft | 112 kts | 88° |
| 2026-05-05 14:19 | -8.74840 | 115.16891 | 30 ft | 54 kts | 87° |
| 2026-05-05 14:20 | -8.74825 | 115.17171 | 30 ft | 38 kts | 88° |
| 2026-05-05 14:20 | -8.74743 | 115.17316 | 32 ft | 24 kts | 357° |
| 2026-05-05 14:20 | -8.74661 | 115.17229 | 34 ft | 20 kts | 270° |
| 2026-05-05 14:20 | -8.74665 | 115.17082 | 34 ft | 22 kts | 268° |
| 2026-05-05 14:21 | -8.74669 | 115.16966 | 34 ft | 11 kts | 269° |
| 2026-05-05 14:21 | -8.74661 | 115.16942 | 34 ft | 4 kts | 344° |
| 2026-05-05 14:21 | -8.74661 | 115.17007 | 34 ft | 13 kts | 98° |
| 2026-05-05 14:21 | -8.74663 | 115.17112 | 34 ft | 11 kts | 84° |
| 2026-05-05 14:22 | -8.74626 | 115.17139 | 35 ft | 6 kts | 352° |
| 2026-05-05 14:22 | -8.74578 | 115.17133 | 35 ft | 8 kts | 356° |
| 2026-05-05 14:22 | -8.74538 | 115.17132 | 35 ft | 1 kts | 358° |
| 2026-05-05 14:22 | -8.74536 | 115.17132 | 35 ft | 0 kts | 358° |